Time;durP1;ratioP1;P1;durP2;ratioP2;P2;SDS_P1;SDS_P2;PMS_P1;PMS_P2;Temp;Humidity;BMP_temperature;BMP_pressure;BME280_temperature;BME280_humidity;BME280_pressure;Samples;Min_cycle;Max_cycle;Signal;HPM_P1;HPM_P2
2022/12/22 03:28:08;;;;;;;7.20;4.13;;;6.90;99.90;;;;;;4989260;28;20097;-67
2022/12/22 03:30:34;;;;;;;8.07;3.83;;;6.90;99.90;;;;;;4992802;28;20162;-66
2022/12/22 03:33:00;;;;;;;7.50;3.55;;;6.90;99.90;;;;;;5010713;28;20532;-66
2022/12/22 03:35:27;;;;;;;6.00;2.75;;;7.00;99.90;;;;;;5007836;28;20029;-67
2022/12/22 03:37:52;;;;;;;8.23;2.85;;;7.10;99.90;;;;;;5008577;28;20502;-66
2022/12/22 03:40:18;;;;;;;8.15;3.67;;;7.20;99.90;;;;;;5007921;28;20140;-67
2022/12/22 03:48:12;;;;;;;7.65;3.30;;;7.40;99.90;;;;;;5001775;28;20041;-68
2022/12/22 03:50:37;;;;;;;8.57;3.50;;;7.40;99.90;;;;;;5001723;28;20034;-68
2022/12/22 03:53:04;;;;;;;7.85;3.45;;;7.40;99.90;;;;;;5020447;28;20129;-67
2022/12/22 03:55:29;;;;;;;4.22;2.47;;;7.40;99.90;;;;;;4990269;28;20494;-67
2022/12/22 03:57:55;;;;;;;4.95;1.90;;;7.30;99.90;;;;;;4988534;28;20026;-67
2022/12/22 04:00:21;;;;;;;4.80;2.35;;;7.40;99.90;;;;;;5006278;28;20108;-65
2022/12/22 04:02:47;;;;;;;8.15;3.13;;;7.50;99.90;;;;;;5017650;28;20447;-68
2022/12/22 04:05:12;;;;;;;6.65;2.70;;;7.50;99.90;;;;;;5018234;28;20030;-68
2022/12/22 04:07:38;;;;;;;5.82;2.90;;;7.50;99.90;;;;;;4996394;28;20741;-67
2022/12/22 04:12:54;;;;;;;3.67;1.80;;;7.50;99.90;;;;;;5016909;28;20045;-69
2022/12/22 04:15:29;;;;;;;5.25;1.77;;;7.70;99.90;;;;;;4993445;28;20436;-68
2022/12/22 04:17:55;;;;;;;3.15;1.60;;;7.90;99.90;;;;;;5002645;28;20518;-66
2022/12/22 04:20:25;;;;;;;4.40;1.70;;;8.00;99.90;;;;;;5004593;28;20061;-66
2022/12/22 04:22:51;;;;;;;6.00;2.92;;;8.10;99.90;;;;;;5006074;28;20045;-69
2022/12/22 04:25:17;;;;;;;3.72;2.30;;;7.80;99.90;;;;;;4994590;28;20109;-67
2022/12/22 04:27:42;;;;;;;8.07;2.70;;;7.70;99.90;;;;;;5019996;28;20025;-66
2022/12/22 04:30:09;;;;;;;6.53;2.80;;;7.60;99.90;;;;;;5010840;28;20101;-67
2022/12/22 04:32:35;;;;;;;5.80;2.90;;;7.70;99.90;;;;;;4990093;28;20456;-68
2022/12/22 04:35:00;;;;;;;6.03;3.08;;;7.80;99.90;;;;;;5003565;28;20141;-67
2022/12/22 04:37:26;;;;;;;7.05;3.55;;;7.80;99.90;;;;;;5008389;28;20120;-67
2022/12/22 04:39:51;;;;;;;5.35;3.05;;;7.80;99.90;;;;;;4997386;28;20441;-70
2022/12/22 04:42:17;;;;;;;4.03;2.20;;;7.80;99.90;;;;;;4989396;28;20058;-67
2022/12/22 04:44:43;;;;;;;6.78;1.67;;;8.00;99.90;;;;;;5003627;28;20105;-66
2022/12/22 04:47:08;;;;;;;6.13;1.90;;;8.20;99.90;;;;;;4996085;28;20729;-68
2022/12/22 04:49:34;;;;;;;2.40;1.08;;;8.30;99.90;;;;;;5003362;28;20471;-64
2022/12/22 04:52:00;;;;;;;2.08;1.20;;;8.40;99.90;;;;;;5006367;28;20467;-67
2022/12/22 04:54:25;;;;;;;2.72;1.40;;;8.60;99.90;;;;;;4995102;28;20073;-67
2022/12/22 04:56:52;;;;;;;4.57;1.30;;;8.70;99.90;;;;;;4994635;28;20113;-69
2022/12/22 04:59:17;;;;;;;4.70;1.50;;;8.60;99.90;;;;;;4997166;28;20056;-67
2022/12/22 05:01:43;;;;;;;1.45;0.88;;;8.70;99.90;;;;;;4994389;28;20612;-71
2022/12/22 05:04:09;;;;;;;1.77;0.82;;;8.80;99.90;;;;;;5007715;28;20406;-70
2022/12/22 05:06:34;;;;;;;2.92;0.90;;;8.90;99.90;;;;;;5007636;28;20042;-70
2022/12/22 05:09:00;;;;;;;1.80;0.80;;;9.10;99.90;;;;;;5008243;28;20038;-71
2022/12/22 05:11:26;;;;;;;3.58;0.93;;;9.10;99.90;;;;;;5000836;28;20471;-67
2022/12/22 05:13:51;;;;;;;1.35;0.90;;;9.20;99.90;;;;;;5014418;28;20022;-70
2022/12/22 05:16:17;;;;;;;3.25;0.95;;;9.30;99.90;;;;;;5009887;28;20037;-70
2022/12/22 05:18:44;;;;;;;1.67;0.90;;;9.20;99.90;;;;;;5011428;28;20443;-70
2022/12/22 05:21:12;;;;;;;3.42;1.20;;;9.20;99.90;;;;;;5005325;28;20068;-69
2022/12/22 05:23:39;;;;;;;2.00;0.90;;;9.20;99.90;;;;;;5009685;28;20048;-70
2022/12/22 05:26:05;;;;;;;2.17;0.90;;;9.20;99.90;;;;;;5009824;28;20814;-69
2022/12/22 05:28:31;;;;;;;2.10;0.98;;;9.10;99.90;;;;;;5009630;28;20037;-69
2022/12/22 05:31:01;;;;;;;6.70;1.23;;;9.10;99.90;;;;;;5009743;28;20046;-69
2022/12/22 05:33:27;;;;;;;2.50;1.30;;;9.00;99.90;;;;;;5010140;28;20116;-69
2022/12/22 05:35:52;;;;;;;3.42;1.05;;;9.10;99.90;;;;;;5010127;28;20118;-70
2022/12/22 05:38:18;;;;;;;2.88;0.90;;;9.10;99.90;;;;;;5008848;28;20473;-70
2022/12/22 05:40:43;;;;;;;3.97;1.15;;;9.10;99.90;;;;;;5008959;28;20083;-70
2022/12/22 05:43:09;;;;;;;4.00;1.17;;;9.10;99.90;;;;;;5010287;28;20041;-68
2022/12/22 05:45:35;;;;;;;6.38;1.63;;;9.30;99.90;;;;;;5010831;28;20030;-70
2022/12/22 05:48:00;;;;;;;4.35;1.35;;;9.20;99.90;;;;;;5004669;28;20030;-69
2022/12/22 05:50:26;;;;;;;5.88;1.42;;;9.10;99.90;;;;;;5011270;28;20438;-70
2022/12/22 05:52:53;;;;;;;2.22;1.10;;;9.10;99.90;;;;;;5010013;28;20034;-69
2022/12/22 05:55:19;;;;;;;3.05;1.15;;;9.20;99.90;;;;;;5010747;28;20121;-68
2022/12/22 05:57:44;;;;;;;6.57;1.27;;;9.30;99.90;;;;;;5006911;28;20117;-67
2022/12/22 06:00:13;;;;;;;4.03;1.48;;;9.20;99.90;;;;;;4996799;28;20565;-67
2022/12/22 06:02:40;;;;;;;5.30;1.60;;;9.30;99.90;;;;;;5005033;28;20129;-68
2022/12/22 06:05:06;;;;;;;4.68;1.20;;;9.40;99.90;;;;;;5001660;28;20038;-68
2022/12/22 06:07:32;;;;;;;3.67;1.10;;;9.50;99.90;;;;;;5009608;28;20044;-69
2022/12/22 06:09:58;;;;;;;6.18;1.25;;;9.50;99.90;;;;;;4996507;28;20038;-69
2022/12/22 06:12:24;;;;;;;6.15;1.00;;;9.50;99.90;;;;;;5008220;28;20445;-68
2022/12/22 06:14:49;;;;;;;3.38;1.00;;;9.50;99.90;;;;;;5010726;28;20041;-71
2022/12/22 06:17:15;;;;;;;7.38;1.08;;;9.70;99.90;;;;;;5008306;28;20036;-68
2022/12/22 06:19:41;;;;;;;8.73;1.30;;;9.70;99.90;;;;;;5010969;28;20034;-68
2022/12/22 06:22:07;;;;;;;2.85;1.00;;;9.70;99.90;;;;;;5007454;28;20037;-69
2022/12/22 06:24:32;;;;;;;5.00;0.90;;;9.80;99.90;;;;;;5010012;28;20471;-70
2022/12/22 06:26:58;;;;;;;7.43;1.10;;;9.80;99.90;;;;;;4992329;28;20030;-69
2022/12/22 06:29:24;;;;;;;3.83;1.00;;;9.80;99.90;;;;;;4991319;28;20129;-68
2022/12/22 06:31:49;;;;;;;9.50;1.00;;;9.80;99.90;;;;;;5002832;28;20065;-69
2022/12/22 06:34:16;;;;;;;3.45;0.93;;;9.80;99.90;;;;;;4998352;28;20033;-69
2022/12/22 06:36:46;;;;;;;4.32;1.00;;;9.70;99.90;;;;;;5010349;28;20077;-70
2022/12/22 06:39:13;;;;;;;6.95;1.17;;;9.70;99.90;;;;;;4990478;28;20049;-72
2022/12/22 06:44:23;;;;;;;10.15;1.33;;;9.70;99.90;;;;;;5012148;28;20637;-69
2022/12/22 06:46:49;;;;;;;4.95;1.00;;;9.60;99.90;;;;;;5011903;28;20052;-70
2022/12/22 06:49:15;;;;;;;1.92;0.80;;;9.60;99.90;;;;;;5007778;28;20042;-70
2022/12/22 06:51:40;;;;;;;5.45;1.10;;;9.60;99.90;;;;;;5004562;28;20113;-70
2022/12/22 06:54:06;;;;;;;5.72;1.00;;;9.40;99.90;;;;;;4999088;28;20450;-68
2022/12/22 06:56:31;;;;;;;5.45;1.20;;;9.40;99.90;;;;;;5007422;28;20083;-68
2022/12/22 06:58:57;;;;;;;7.63;1.33;;;9.40;99.90;;;;;;4990611;28;20061;-71
2022/12/22 07:01:23;;;;;;;7.18;1.15;;;9.30;99.90;;;;;;5002885;28;20033;-68
2022/12/22 07:03:49;;;;;;;5.35;1.15;;;9.40;99.90;;;;;;5004616;28;20034;-68
2022/12/22 07:06:17;;;;;;;9.65;1.15;;;9.50;99.90;;;;;;5004567;28;20033;-67
2022/12/22 07:08:43;;;;;;;4.28;1.25;;;9.70;99.90;;;;;;5009293;28;20041;-70
2022/12/22 07:11:09;;;;;;;6.47;1.00;;;9.70;99.90;;;;;;5004991;28;20364;-67
2022/12/22 07:13:34;;;;;;;5.47;1.00;;;9.80;99.90;;;;;;4991003;28;20038;-68
2022/12/22 07:16:02;;;;;;;8.27;1.25;;;9.80;99.90;;;;;;5005949;28;20061;-72
2022/12/22 07:18:35;;;;;;;6.68;1.02;;;9.80;99.90;;;;;;5008880;28;20092;-69
2022/12/22 07:21:04;;;;;;;8.27;0.98;;;9.80;99.90;;;;;;4998485;28;20052;-69
2022/12/22 07:23:30;;;;;;;7.32;1.00;;;10.00;99.90;;;;;;5005375;28;20065;-68
2022/12/22 07:25:56;;;;;;;5.68;1.00;;;10.20;99.90;;;;;;4996509;28;20034;-70
2022/12/22 07:28:22;;;;;;;6.53;1.17;;;10.20;99.90;;;;;;5000718;28;20037;-70
2022/12/22 07:30:52;;;;;;;7.85;1.15;;;10.10;99.90;;;;;;5008292;28;20042;-68
2022/12/22 07:33:17;;;;;;;7.20;1.23;;;10.00;99.90;;;;;;5008723;28;20084;-70
2022/12/22 07:35:43;;;;;;;6.57;1.48;;;10.10;99.90;;;;;;5002313;28;20034;-70
2022/12/22 07:38:09;;;;;;;10.57;1.75;;;10.10;99.90;;;;;;4994744;28;20034;-71
2022/12/22 07:40:34;;;;;;;8.15;1.55;;;10.10;99.90;;;;;;5013110;28;20109;-69
2022/12/22 07:43:00;;;;;;;8.13;1.00;;;10.00;99.90;;;;;;4996994;28;20037;-71
2022/12/22 07:45:26;;;;;;;4.63;1.20;;;10.00;99.90;;;;;;5008561;28;20030;-70
2022/12/22 07:47:58;;;;;;;6.05;1.33;;;10.00;99.90;;;;;;5007827;28;20033;-70
2022/12/22 07:50:24;;;;;;;11.35;1.55;;;9.90;99.90;;;;;;4994702;28;20034;-68
2022/12/22 07:52:51;;;;;;;8.15;1.40;;;9.80;99.90;;;;;;4990008;28;20041;-71
2022/12/22 07:55:17;;;;;;;9.23;1.52;;;9.80;99.90;;;;;;5004650;28;20045;-71
2022/12/22 07:57:43;;;;;;;5.43;1.40;;;9.70;99.90;;;;;;4993890;28;20027;-68
2022/12/22 08:00:10;;;;;;;6.40;1.60;;;9.70;99.90;;;;;;5005304;28;20048;-68
2022/12/22 08:02:35;;;;;;;9.65;1.40;;;9.70;99.90;;;;;;5003222;28;20386;-69
2022/12/22 08:05:01;;;;;;;10.05;1.30;;;9.80;99.90;;;;;;4999559;28;20034;-68
2022/12/22 08:07:26;;;;;;;8.57;1.25;;;9.80;99.90;;;;;;4996943;28;20045;-67
2022/12/22 08:09:52;;;;;;;7.07;1.50;;;9.90;99.90;;;;;;4996116;28;20104;-68
2022/12/22 08:12:18;;;;;;;10.57;1.48;;;9.80;99.90;;;;;;5000202;28;20037;-66
2022/12/22 08:14:44;;;;;;;7.53;1.33;;;9.90;99.90;;;;;;5000665;28;20049;-67
2022/12/22 08:17:11;;;;;;;11.18;1.30;;;9.90;99.90;;;;;;4991536;28;20029;-70
2022/12/22 08:19:37;;;;;;;7.05;1.48;;;10.00;99.90;;;;;;4994290;28;20057;-66
2022/12/22 08:22:03;;;;;;;14.85;1.70;;;10.20;99.90;;;;;;4998310;28;20030;-68
2022/12/22 08:24:29;;;;;;;5.07;1.20;;;10.30;99.90;;;;;;5001639;28;20065;-67
2022/12/22 08:27:11;;;;;;;9.02;1.80;;;10.30;99.90;;;;;;4997646;28;20041;-68
2022/12/22 08:29:47;;;;;;;6.38;1.60;;;10.30;99.90;;;;;;5001584;28;20030;-68
2022/12/22 08:32:13;;;;;;;8.10;1.20;;;10.20;99.90;;;;;;5002876;28;20033;-66
2022/12/22 08:34:39;;;;;;;11.93;1.50;;;10.10;99.90;;;;;;5006272;28;20034;-68
2022/12/22 08:37:09;;;;;;;4.30;1.05;;;10.00;99.90;;;;;;5000177;28;20041;-69
2022/12/22 08:39:38;;;;;;;7.43;0.85;;;10.00;99.90;;;;;;4993363;28;20709;-67
2022/12/22 08:42:07;;;;;;;3.53;0.80;;;10.00;99.90;;;;;;4994800;28;20113;-71
2022/12/22 08:44:35;;;;;;;7.65;1.00;;;10.00;99.90;;;;;;4992710;28;20027;-70
2022/12/22 08:47:00;;;;;;;5.10;0.82;;;10.10;99.90;;;;;;4998521;28;20042;-66
2022/12/22 08:49:26;;;;;;;5.00;0.95;;;10.10;99.90;;;;;;5009141;28;20034;-67
2022/12/22 08:51:52;;;;;;;8.02;0.93;;;10.10;99.90;;;;;;5007250;28;20476;-69
2022/12/22 08:54:19;;;;;;;8.75;1.20;;;10.10;99.90;;;;;;4991818;28;20066;-68
2022/12/22 08:56:44;;;;;;;12.27;1.55;;;10.00;99.90;;;;;;4995707;28;20061;-68
2022/12/22 08:59:11;;;;;;;7.82;1.58;;;9.90;99.90;;;;;;5011711;28;20505;-68
2022/12/22 09:01:38;;;;;;;9.57;1.48;;;9.80;99.90;;;;;;5011289;28;20113;-68
2022/12/22 09:04:05;;;;;;;7.20;0.93;;;9.70;99.90;;;;;;5008739;28;20154;-70
2022/12/22 09:06:31;;;;;;;10.75;1.20;;;9.70;99.90;;;;;;5007143;28;20057;-68
2022/12/22 09:09:06;;;;;;;6.40;1.10;;;9.60;99.90;;;;;;4993228;28;20038;-69
2022/12/22 09:11:32;;;;;;;8.45;1.30;;;9.60;99.90;;;;;;5008870;28;20128;-69
2022/12/22 09:13:59;;;;;;;9.98;1.50;;;9.60;99.90;;;;;;5009808;28;20399;-70
2022/12/22 09:16:28;;;;;;;11.57;1.30;;;9.60;99.90;;;;;;5003039;28;20022;-65
2022/12/22 09:18:54;;;;;;;10.48;1.60;;;9.60;99.90;;;;;;4992956;28;20495;-68
2022/12/22 09:21:21;;;;;;;8.27;1.10;;;9.70;99.90;;;;;;5005446;28;20026;-69
2022/12/22 09:23:46;;;;;;;7.22;1.00;;;9.90;99.90;;;;;;5011036;28;20111;-68
2022/12/22 09:26:15;;;;;;;8.15;1.20;;;10.00;99.90;;;;;;4995830;28;20061;-69
2022/12/22 09:28:41;;;;;;;5.20;1.30;;;10.10;99.90;;;;;;5011930;28;20112;-69
2022/12/22 09:31:07;;;;;;;15.93;1.40;;;10.10;99.90;;;;;;5002008;28;20125;-70
2022/12/22 09:33:33;;;;;;;5.60;1.40;;;10.20;99.90;;;;;;5011605;28;20034;-67
2022/12/22 09:35:58;;;;;;;9.82;0.90;;;10.20;99.90;;;;;;5004131;28;20137;-68
2022/12/22 09:38:27;;;;;;;7.78;1.42;;;10.30;99.90;;;;;;5002947;28;20574;-67
2022/12/22 09:40:56;;;;;;;8.02;1.77;;;10.30;99.90;;;;;;4995995;28;20042;-68
2022/12/22 09:43:28;;;;;;;12.05;1.10;;;10.40;99.90;;;;;;4993223;28;20630;-68
2022/12/22 09:45:54;;;;;;;6.90;1.10;;;10.50;99.90;;;;;;5027205;28;20030;-66
2022/12/22 09:48:20;;;;;;;9.18;1.88;;;10.60;99.90;;;;;;4999393;28;20030;-65
2022/12/22 09:50:46;;;;;;;6.53;0.80;;;10.60;99.90;;;;;;5003313;28;20034;-67
2022/12/22 09:53:21;;;;;;;5.53;1.40;;;10.50;99.90;;;;;;5005685;28;20086;-67
2022/12/22 09:55:49;;;;;;;5.53;0.88;;;10.60;99.90;;;;;;5000076;28;20042;-69
2022/12/22 09:58:33;;;;;;;6.70;0.73;;;10.60;99.90;;;;;;4991467;28;20084;-66
2022/12/22 10:01:05;;;;;;;9.30;0.90;;;10.60;99.90;;;;;;4992400;28;20093;-71
2022/12/22 10:03:44;;;;;;;2.47;0.52;;;10.50;99.90;;;;;;5004721;28;20068;-64
2022/12/22 10:06:33;;;;;;;6.97;0.70;;;10.20;99.90;;;;;;4995722;28;20042;-68
2022/12/22 10:09:16;;;;;;;4.22;0.75;;;10.10;99.90;;;;;;5010645;28;20116;-67
2022/12/22 10:11:53;;;;;;;8.45;1.30;;;9.90;99.90;;;;;;5004774;28;20022;-67
2022/12/22 10:14:19;;;;;;;7.82;0.82;;;9.70;99.90;;;;;;4998250;28;20030;-66
2022/12/22 10:16:45;;;;;;;11.05;1.15;;;9.50;99.90;;;;;;5008157;28;20022;-69
2022/12/22 10:19:12;;;;;;;7.63;0.82;;;9.50;99.90;;;;;;4994145;28;20471;-67
2022/12/22 10:21:39;;;;;;;7.75;1.02;;;9.50;99.90;;;;;;5004119;28;20107;-66
2022/12/22 10:24:30;;;;;;;3.60;0.98;;;9.40;99.90;;;;;;5001097;28;20064;-68
2022/12/22 10:26:57;;;;;;;5.47;1.35;;;9.40;99.90;;;;;;4997561;28;20046;-64
2022/12/22 10:29:24;;;;;;;5.55;0.95;;;9.30;99.90;;;;;;5005641;28;20398;-66
2022/12/22 10:32:02;;;;;;;7.00;1.27;;;9.20;99.90;;;;;;4999603;28;20053;-66
2022/12/22 10:34:28;;;;;;;8.10;1.42;;;9.30;99.90;;;;;;5007395;28;20621;-67
2022/12/22 10:37:00;;;;;;;7.45;1.00;;;9.30;99.90;;;;;;4999482;28;20044;-65
2022/12/22 10:39:30;;;;;;;6.93;1.27;;;9.30;99.90;;;;;;4998195;28;20034;-69
2022/12/22 10:42:00;;;;;;;7.18;1.35;;;9.20;99.90;;;;;;5005640;28;20479;-65
2022/12/22 10:44:33;;;;;;;9.47;1.50;;;9.20;99.90;;;;;;5002298;28;20037;-68
2022/12/22 10:47:10;;;;;;;7.68;1.75;;;9.10;99.90;;;;;;5003389;28;20099;-66
2022/12/22 10:49:39;;;;;;;9.15;1.40;;;9.10;99.90;;;;;;4996813;28;20093;-69
2022/12/22 10:52:21;;;;;;;5.85;1.00;;;9.10;99.90;;;;;;5006165;28;20034;-66
2022/12/22 10:54:47;;;;;;;9.35;1.42;;;9.10;99.90;;;;;;5007931;28;20407;-68
2022/12/22 10:57:13;;;;;;;10.02;1.70;;;9.00;99.90;;;;;;4994589;28;20026;-71
2022/12/22 10:59:53;;;;;;;11.15;1.45;;;9.00;99.90;;;;;;5000747;28;20141;-68
2022/12/22 11:02:28;;;;;;;9.82;1.80;;;8.90;99.90;;;;;;5004354;28;20784;-67
2022/12/22 11:05:07;;;;;;;12.02;1.75;;;8.90;99.90;;;;;;5013548;28;20502;-70
2022/12/22 11:07:36;;;;;;;5.70;1.35;;;8.90;99.90;;;;;;4997815;28;20510;-69
2022/12/22 11:10:13;;;;;;;7.35;1.33;;;8.90;99.90;;;;;;4989989;28;20088;-69
2022/12/22 11:13:23;;;;;;;5.15;1.05;;;8.90;99.90;;;;;;5004576;28;20030;-66
2022/12/22 11:16:02;;;;;;;11.80;1.52;;;9.00;99.90;;;;;;4971723;28;20058;-66
2022/12/22 11:18:49;;;;;;;10.65;1.92;;;9.00;99.90;;;;;;4971944;28;20030;-67
2022/12/22 11:21:20;;;;;;;16.52;1.75;;;9.10;99.90;;;;;;4987197;28;20163;-68
2022/12/22 11:23:52;;;;;;;13.50;1.63;;;9.00;99.90;;;;;;4997362;28;20051;-66
2022/12/22 11:26:59;;;;;;;7.88;1.80;;;9.10;99.90;;;;;;4996975;28;20044;-67
2022/12/22 11:29:48;;;;;;;7.18;1.55;;;9.10;99.90;;;;;;4988481;28;20101;-67
2022/12/22 11:32:48;;;;;;;18.33;1.90;;;9.10;99.90;;;;;;4995602;28;20041;-65
2022/12/22 11:35:39;;;;;;;9.13;2.25;;;9.10;99.90;;;;;;4991705;28;20289;-68
2022/12/22 11:38:14;;;;;;;8.05;1.60;;;9.20;99.90;;;;;;5003176;28;20034;-65
2022/12/22 11:40:48;;;;;;;10.48;2.35;;;9.20;99.90;;;;;;4994202;28;20048;-65
2022/12/22 11:43:17;;;;;;;11.85;1.80;;;9.10;99.90;;;;;;4997218;28;20052;-65
2022/12/22 11:46:03;;;;;;;8.63;1.67;;;9.10;99.90;;;;;;5006928;28;20053;-66
2022/12/22 11:48:32;;;;;;;7.25;1.95;;;9.20;99.90;;;;;;5009785;28;20041;-64
2022/12/22 11:51:24;;;;;;;9.27;2.13;;;9.20;99.90;;;;;;4995482;28;20049;-66
2022/12/22 11:54:14;;;;;;;8.13;1.65;;;9.20;99.90;;;;;;4994953;28;20059;-67
2022/12/22 11:56:43;;;;;;;11.85;1.88;;;9.20;99.90;;;;;;4991071;28;20034;-66
2022/12/22 11:59:42;;;;;;;9.00;1.50;;;9.20;99.90;;;;;;4991504;28;20049;-64
2022/12/22 12:02:38;;;;;;;8.18;1.52;;;9.30;99.90;;;;;;5000652;28;20394;-67
2022/12/22 12:05:28;;;;;;;7.35;1.48;;;9.30;99.90;;;;;;4991789;28;20036;-66
2022/12/22 12:08:16;;;;;;;6.13;1.07;;;9.30;99.90;;;;;;5029610;28;20045;-67
2022/12/22 12:11:05;;;;;;;6.28;1.40;;;9.40;99.90;;;;;;4995833;28;20061;-66
2022/12/22 12:14:04;;;;;;;8.35;1.40;;;9.50;99.90;;;;;;5002356;28;20034;-64
2022/12/22 12:17:01;;;;;;;8.32;1.60;;;9.50;99.90;;;;;;5004977;28;20037;-66
2022/12/22 12:19:45;;;;;;;10.82;1.35;;;9.50;99.90;;;;;;4986037;28;20446;-65
2022/12/22 12:22:38;;;;;;;12.82;2.15;;;9.40;99.90;;;;;;5005989;28;20146;-66
2022/12/22 12:25:31;;;;;;;12.98;1.85;;;9.40;99.90;;;;;;4991366;28;20039;-65
2022/12/22 12:28:12;;;;;;;7.65;1.50;;;9.40;99.90;;;;;;4990187;28;20407;-66
2022/12/22 12:30:56;;;;;;;10.68;1.52;;;9.50;99.90;;;;;;4996632;28;20144;-67
2022/12/22 12:33:44;;;;;;;9.65;1.55;;;9.50;99.90;;;;;;5000082;28;20025;-66
2022/12/22 12:36:23;;;;;;;4.18;1.08;;;9.60;99.90;;;;;;4991073;28;20369;-70
2022/12/22 12:38:48;;;;;;;7.43;0.88;;;9.60;99.90;;;;;;5001869;28;20021;-68
2022/12/22 12:41:45;;;;;;;10.32;1.88;;;9.70;99.90;;;;;;5000647;28;20084;-68
2022/12/22 12:44:15;;;;;;;11.40;1.60;;;9.70;99.90;;;;;;4992093;28;20031;-68
2022/12/22 12:46:49;;;;;;;14.35;1.25;;;9.60;99.90;;;;;;4996595;28;20039;-67
2022/12/22 12:49:35;;;;;;;4.85;0.95;;;9.60;99.90;;;;;;4997862;28;20049;-69
2022/12/22 12:52:03;;;;;;;7.22;1.60;;;9.60;99.90;;;;;;4994833;28;20053;-67
2022/12/22 12:54:28;;;;;;;7.40;1.48;;;9.60;99.90;;;;;;4996643;28;20037;-66
2022/12/22 12:57:20;;;;;;;9.27;1.77;;;9.50;99.90;;;;;;5003055;28;20034;-66
2022/12/22 12:59:48;;;;;;;8.77;1.33;;;9.60;99.90;;;;;;5001379;28;20041;-69
2022/12/22 13:02:25;;;;;;;11.13;1.63;;;9.60;99.90;;;;;;5003726;28;20038;-67
2022/12/22 13:05:12;;;;;;;10.40;1.80;;;9.60;99.90;;;;;;4999521;28;20034;-70
2022/12/22 13:08:04;;;;;;;7.13;1.40;;;9.70;99.90;;;;;;4992763;28;20018;-67
2022/12/22 13:10:30;;;;;;;11.93;1.40;;;9.60;99.90;;;;;;4988654;28;20463;-68
2022/12/22 13:12:57;;;;;;;5.70;1.20;;;9.70;99.90;;;;;;4991927;28;20041;-66
2022/12/22 13:15:37;;;;;;;12.43;1.20;;;9.70;99.90;;;;;;4990036;28;20108;-67
2022/12/22 13:18:32;;;;;;;6.22;0.77;;;9.70;99.90;;;;;;4999729;28;20535;-66
2022/12/22 13:21:25;;;;;;;7.18;1.35;;;9.80;99.90;;;;;;4982255;28;20050;-66
2022/12/22 13:23:53;;;;;;;5.13;0.93;;;9.80;99.90;;;;;;4992269;28;20388;-67
2022/12/22 13:26:35;;;;;;;7.43;0.88;;;9.70;99.90;;;;;;5003958;28;20037;-67
2022/12/22 13:29:25;;;;;;;9.05;1.20;;;9.70;99.90;;;;;;5011668;28;20080;-68
2022/12/22 13:31:56;;;;;;;5.88;1.10;;;9.60;99.90;;;;;;4995411;28;20037;-65
2022/12/22 13:34:44;;;;;;;10.18;1.35;;;9.60;99.90;;;;;;5002777;28;20190;-68
2022/12/22 13:37:26;;;;;;;7.65;1.00;;;9.60;99.90;;;;;;5000486;28;20100;-67
2022/12/22 13:40:17;;;;;;;2.67;0.80;;;9.60;99.90;;;;;;5003820;28;20042;-68
2022/12/22 13:42:55;;;;;;;5.97;0.98;;;9.60;99.90;;;;;;4993550;28;20030;-69
2022/12/22 13:45:38;;;;;;;6.00;1.17;;;9.60;99.90;;;;;;4999212;28;20026;-69
2022/12/22 13:48:13;;;;;;;5.82;0.98;;;9.50;99.90;;;;;;5003568;28;20034;-69
2022/12/22 13:50:47;;;;;;;6.45;1.05;;;9.60;99.90;;;;;;4996453;28;20061;-69
2022/12/22 13:53:21;;;;;;;6.18;0.90;;;9.50;99.90;;;;;;5018609;28;20033;-69
2022/12/22 13:55:47;;;;;;;6.38;1.00;;;9.50;99.90;;;;;;5001806;28;20069;-68
2022/12/22 13:58:44;;;;;;;3.78;1.02;;;9.60;99.90;;;;;;5014614;28;20049;-69
2022/12/22 14:01:09;;;;;;;5.63;1.23;;;9.50;99.90;;;;;;4990924;28;20059;-67
2022/12/22 14:03:36;;;;;;;5.20;1.25;;;9.50;99.90;;;;;;5000420;28;20042;-68
2022/12/22 14:06:02;;;;;;;4.75;1.45;;;9.60;99.90;;;;;;5007792;28;20430;-69
2022/12/22 14:08:27;;;;;;;4.15;1.25;;;9.60;99.90;;;;;;5034991;28;20034;-70
2022/12/22 14:10:54;;;;;;;2.80;1.05;;;9.60;99.90;;;;;;4996767;28;20792;-70
2022/12/22 14:13:25;;;;;;;3.42;0.88;;;9.50;99.90;;;;;;5017037;28;20029;-69
2022/12/22 14:16:03;;;;;;;6.25;0.98;;;9.50;99.90;;;;;;5013385;28;20041;-67
2022/12/22 14:18:31;;;;;;;4.65;0.98;;;9.50;99.90;;;;;;5023535;28;20033;-67
2022/12/22 14:20:58;;;;;;;4.78;1.02;;;9.50;99.90;;;;;;4993250;28;20046;-66
2022/12/22 14:23:39;;;;;;;5.15;1.10;;;9.50;99.90;;;;;;5010411;28;20138;-68
2022/12/22 14:26:05;;;;;;;;;;;9.40;99.90;;;;;;5002623;28;20129;-67
2022/12/22 14:28:46;;;;;;;11.90;2.30;;;9.40;99.90;;;;;;4997819;28;19920;-70
2022/12/22 14:31:12;;;;;;;11.30;1.40;;;9.40;99.90;;;;;;4995374;28;20030;-67
2022/12/22 14:33:49;;;;;;;5.80;1.10;;;9.30;99.90;;;;;;5004896;28;20531;-68
2022/12/22 14:36:23;;;;;;;6.93;1.50;;;9.30;99.90;;;;;;5001923;28;20033;-68
2022/12/22 14:38:53;;;;;;;10.95;1.95;;;9.30;99.90;;;;;;5011638;28;20065;-67
2022/12/22 14:41:42;;;;;;;11.27;1.80;;;9.20;99.90;;;;;;5010374;28;20652;-67
2022/12/22 14:44:19;;;;;;;17.05;2.22;;;9.20;99.90;;;;;;4992740;28;20121;-66
2022/12/22 14:47:08;;;;;;;12.93;1.63;;;9.20;99.90;;;;;;5007772;28;20502;-67
2022/12/22 14:49:42;;;;;;;16.85;1.30;;;9.10;99.90;;;;;;4999825;28;20046;-67
2022/12/22 14:52:49;;;;;;;9.27;1.27;;;9.10;99.90;;;;;;5000327;28;20034;-67
2022/12/22 14:55:21;;;;;;;10.75;1.63;;;9.10;99.90;;;;;;4991585;28;20503;-67
2022/12/22 14:57:53;;;;;;;10.48;1.58;;;9.10;99.90;;;;;;5001262;28;20261;-66
2022/12/22 15:00:21;;;;;;;7.60;1.63;;;9.10;99.90;;;;;;5008451;28;20088;-67
2022/12/22 15:02:55;;;;;;;10.95;1.40;;;9.00;99.90;;;;;;5021233;28;20856;-67
2022/12/22 15:05:47;;;;;;;11.82;1.75;;;9.00;99.90;;;;;;5009223;28;20064;-67
2022/12/22 15:08:40;;;;;;;13.80;1.77;;;9.00;99.90;;;;;;5009799;28;20401;-65
2022/12/22 15:11:11;;;;;;;11.52;1.52;;;9.10;99.90;;;;;;5006532;28;20091;-67
2022/12/22 15:13:37;;;;;;;10.05;1.58;;;9.00;99.90;;;;;;5005450;28;20047;-65
2022/12/22 15:16:03;;;;;;;11.88;1.70;;;9.10;99.90;;;;;;4990230;28;20046;-67
2022/12/22 15:18:31;;;;;;;12.38;2.00;;;9.10;99.90;;;;;;4990553;28;20501;-68
2022/12/22 15:20:57;;;;;;;9.10;1.48;;;9.00;99.90;;;;;;5004040;28;20128;-67
2022/12/22 15:23:23;;;;;;;9.27;1.50;;;9.10;99.90;;;;;;5009525;28;20095;-67
2022/12/22 15:25:49;;;;;;;14.75;1.85;;;9.10;99.90;;;;;;5008475;28;20136;-68
2022/12/22 15:28:14;;;;;;;12.77;2.00;;;9.10;99.90;;;;;;5008697;28;20113;-67
2022/12/22 15:30:41;;;;;;;4.82;1.55;;;9.10;99.90;;;;;;5008689;28;20049;-67
2022/12/22 15:33:15;;;;;;;12.68;1.30;;;9.10;99.90;;;;;;5008932;28;20026;-66
2022/12/22 15:35:41;;;;;;;9.48;1.75;;;9.10;99.90;;;;;;4990089;28;20047;-68
2022/12/22 15:38:19;;;;;;;10.40;2.05;;;9.20;99.90;;;;;;4990093;28;20080;-68
2022/12/22 15:40:45;;;;;;;11.98;2.22;;;9.20;99.90;;;;;;5006283;28;20045;-69
2022/12/22 15:43:11;;;;;;;20.42;2.67;;;9.20;99.90;;;;;;5009186;28;20087;-68
2022/12/22 15:45:38;;;;;;;14.40;1.50;;;9.20;99.90;;;;;;5008716;28;20026;-67
2022/12/22 15:48:05;;;;;;;7.78;1.90;;;9.20;99.90;;;;;;4995626;28;20168;-67
2022/12/22 15:50:35;;;;;;;12.40;2.13;;;9.20;99.90;;;;;;5006276;28;20483;-69
2022/12/22 15:53:03;;;;;;;9.18;1.83;;;9.20;99.90;;;;;;5004890;28;20034;-68
2022/12/22 15:55:29;;;;;;;16.02;2.80;;;9.20;99.90;;;;;;4991456;28;20467;-70
2022/12/22 15:57:57;;;;;;;14.35;2.08;;;9.20;99.90;;;;;;5008997;28;20453;-69
2022/12/22 16:00:24;;;;;;;15.52;2.95;;;9.20;99.90;;;;;;5006394;28;20131;-68
2022/12/22 16:02:50;;;;;;;13.07;2.33;;;9.30;99.90;;;;;;4991660;28;20022;-67
2022/12/22 16:05:16;;;;;;;19.65;2.38;;;9.20;99.90;;;;;;5012024;28;20030;-70
2022/12/22 16:07:43;;;;;;;13.00;2.35;;;9.20;99.90;;;;;;5017130;28;20045;-69
2022/12/22 16:10:24;;;;;;;13.13;2.88;;;9.20;99.90;;;;;;4992428;28;20433;-69
2022/12/22 16:12:54;;;;;;;18.40;2.72;;;9.20;99.90;;;;;;5006785;28;20113;-68
2022/12/22 16:15:21;;;;;;;10.98;1.92;;;9.20;99.90;;;;;;5009269;28;20472;-66
2022/12/22 16:17:46;;;;;;;12.20;2.08;;;9.20;99.90;;;;;;5001265;28;20230;-69
2022/12/22 16:20:12;;;;;;;22.77;2.88;;;9.20;99.90;;;;;;5007636;28;20468;-69
2022/12/22 16:22:39;;;;;;;12.57;2.03;;;9.20;99.90;;;;;;5005725;28;20156;-67
2022/12/22 16:25:13;;;;;;;15.90;2.35;;;9.30;99.90;;;;;;5002322;28;20052;-68
2022/12/22 16:27:39;;;;;;;12.73;2.60;;;9.30;99.90;;;;;;5000648;28;20036;-69
2022/12/22 16:30:18;;;;;;;14.40;2.08;;;9.30;99.90;;;;;;4997411;28;20034;-69
2022/12/22 16:32:44;;;;;;;8.93;2.28;;;9.20;99.90;;;;;;5005396;28;20057;-69
2022/12/22 16:35:10;;;;;;;10.77;1.70;;;9.20;99.90;;;;;;5005862;28;20062;-70
2022/12/22 16:37:36;;;;;;;9.85;1.92;;;9.20;99.90;;;;;;5006696;28;20221;-69
2022/12/22 16:40:05;;;;;;;11.75;2.20;;;9.20;99.90;;;;;;5007261;28;20048;-69
2022/12/22 16:42:32;;;;;;;18.13;2.42;;;9.20;99.90;;;;;;4997269;28;20018;-69
2022/12/22 16:44:57;;;;;;;12.38;1.85;;;9.20;99.90;;;;;;4992137;28;20037;-70
2022/12/22 16:47:30;;;;;;;13.32;1.90;;;9.20;99.90;;;;;;4995657;28;20099;-69
2022/12/22 16:49:56;;;;;;;10.25;1.90;;;9.20;99.90;;;;;;4995925;28;20168;-68
2022/12/22 16:52:29;;;;;;;13.43;1.98;;;9.20;99.90;;;;;;4991565;28;20116;-67